Time;durP1;ratioP1;P1;durP2;ratioP2;P2;SDS_P1;SDS_P2;PMS_P1;PMS_P2;Temp;Humidity;BMP_temperature;BMP_pressure;BME280_temperature;BME280_humidity;BME280_pressure;Samples;Min_cycle;Max_cycle;Signal;HPM_P1;HPM_P2
2022/03/04 00:04:37;;;;;;;35.30;17.80;;;;;;;-0.93;67.52;98818.05;218723;1277;22724;-69
2022/03/04 00:09:39;;;;;;;38.60;19.00;;;;;;;-0.93;67.40;98813.88;218711;1276;22567;-68
2022/03/04 00:14:44;;;;;;;45.60;21.10;;;;;;;-0.91;67.44;98817.52;218853;1276;22698;-68
2022/03/04 00:19:47;;;;;;;40.20;19.90;;;;;;;-0.92;67.55;98819.23;218920;1276;23128;-68
2022/03/04 00:24:55;;;;;;;37.90;19.20;;;;;;;-0.94;67.24;98815.73;218766;1276;22645;-69
2022/03/04 00:29:57;;;;;;;41.30;21.00;;;;;;;-0.91;67.63;98815.57;219009;1277;24785;-68
2022/03/04 00:34:59;;;;;;;41.70;20.40;;;;;;;-0.88;67.68;98809.27;218931;1277;25754;-69
2022/03/04 00:40:03;;;;;;;38.80;20.50;;;;;;;-0.84;67.68;98809.05;218871;1277;22560;-69
2022/03/04 00:45:06;;;;;;;41.90;20.40;;;;;;;-0.83;67.43;98809.13;218610;1276;24287;-68
2022/03/04 00:50:08;;;;;;;41.90;21.30;;;;;;;-0.81;67.50;98803.98;218937;1277;23999;-68
2022/03/04 00:55:10;;;;;;;44.70;21.60;;;;;;;-0.77;67.27;98802.41;218839;1275;24120;-69
2022/03/04 01:00:14;;;;;;;41.30;20.90;;;;;;;-0.74;67.39;98798.79;218858;1276;24102;-69
2022/03/04 01:05:16;;;;;;;41.90;20.70;;;;;;;-0.71;67.25;98793.10;218991;1276;22584;-69
2022/03/04 01:10:18;;;;;;;37.30;20.00;;;;;;;-0.66;67.22;98790.63;218945;1276;25370;-69
2022/03/04 01:15:21;;;;;;;43.40;21.20;;;;;;;-0.66;67.30;98789.33;218848;1277;22550;-68
2022/03/04 01:20:23;;;;;;;42.70;20.60;;;;;;;-0.68;67.03;98778.02;218675;1276;25382;-68
2022/03/04 01:25:26;;;;;;;34.10;18.80;;;;;;;-0.69;67.06;98769.92;218885;1278;25648;-70
2022/03/04 01:30:29;;;;;;;41.20;20.10;;;;;;;-0.75;66.90;98754.48;219130;1276;23027;-69
2022/03/04 01:35:31;;;;;;;42.90;20.20;;;;;;;-0.78;67.19;98772.80;219069;1276;22557;-68
2022/03/04 01:40:33;;;;;;;42.40;20.70;;;;;;;-0.81;67.17;98774.59;218821;1276;26745;-68
2022/03/04 01:45:40;;;;;;;38.10;18.00;;;;;;;-0.82;67.43;98772.95;219202;1274;22588;-69
2022/03/04 01:50:42;;;;;;;43.00;21.10;;;;;;;-0.82;67.48;98782.78;218600;1276;22574;-69
2022/03/04 01:55:45;;;;;;;43.60;20.10;;;;;;;-0.81;67.37;98792.23;218662;1276;22579;-68
2022/03/04 02:00:47;;;;;;;38.80;19.70;;;;;;;-0.80;67.44;98793.69;218674;1276;22844;-68
2022/03/04 02:05:51;;;;;;;34.90;18.30;;;;;;;-0.78;67.51;98792.54;218721;1276;22749;-68
2022/03/04 02:10:54;;;;;;;34.20;17.10;;;;;;;-0.76;67.75;98796.49;218621;1276;24273;-68
2022/03/04 02:15:56;;;;;;;38.00;20.20;;;;;;;-0.80;67.63;98792.16;219136;1276;24221;-69
2022/03/04 02:21:38;;;;;;;38.70;20.00;;;;;;;-0.87;67.91;98783.98;218913;1275;22630;-69
2022/03/04 02:27:01;;;;;;;45.70;21.90;;;;;;;-0.97;68.22;98791.17;218922;1276;24101;-68
2022/03/04 02:32:04;;;;;;;46.80;22.00;;;;;;;-1.03;68.68;98797.92;219026;1276;22823;-69
2022/03/04 02:37:12;;;;;;;43.30;20.80;;;;;;;-1.06;68.89;98799.12;218925;1276;24361;-69
2022/03/04 02:42:14;;;;;;;45.60;22.70;;;;;;;-1.06;69.08;98797.47;218723;1276;22553;-69
2022/03/04 02:47:16;;;;;;;43.50;22.10;;;;;;;-1.08;69.30;98800.50;218711;1276;22538;-69
2022/03/04 02:52:24;;;;;;;41.40;21.30;;;;;;;-1.07;69.32;98800.94;218935;1277;22578;-69
2022/03/04 02:57:32;;;;;;;44.80;21.40;;;;;;;-1.08;69.40;98803.29;218887;1276;22656;-68
2022/03/04 03:02:38;;;;;;;44.00;20.20;;;;;;;-1.08;69.54;98801.19;219114;1276;22677;-68
2022/03/04 03:07:42;;;;;;;40.60;20.60;;;;;;;-1.05;69.49;98804.17;219128;1276;25421;-68
2022/03/04 03:12:44;;;;;;;39.50;19.40;;;;;;;-1.05;69.50;98809.05;218734;1276;22580;-69
2022/03/04 03:17:46;;;;;;;39.00;19.00;;;;;;;-1.03;69.75;98814.07;218923;1276;25511;-69
2022/03/04 03:22:48;;;;;;;37.80;19.00;;;;;;;-1.02;69.53;98811.11;218832;1276;22541;-68
2022/03/04 03:27:51;;;;;;;35.70;18.40;;;;;;;-1.00;69.84;98813.59;218738;1276;23883;-69
2022/03/04 03:32:53;;;;;;;35.40;18.30;;;;;;;-0.99;69.82;98810.73;219017;1276;22610;-68
2022/03/04 03:37:57;;;;;;;34.40;18.40;;;;;;;-1.02;69.75;98807.39;219044;1276;22616;-68
2022/03/04 03:42:59;;;;;;;31.60;17.20;;;;;;;-1.04;69.96;98810.59;219065;1276;22605;-69
2022/03/04 03:48:01;;;;;;;31.00;16.10;;;;;;;-1.04;70.06;98813.83;219039;1276;24186;-68
2022/03/04 03:53:04;;;;;;;32.20;14.50;;;;;;;-1.04;70.09;98813.45;218967;1276;24901;-68
2022/03/04 03:58:06;;;;;;;26.80;13.90;;;;;;;-1.06;70.21;98813.44;218940;1276;24831;-67
2022/03/04 04:03:21;;;;;;;;;;;;;;;;;;;;;
2022/03/04 04:08:23;;;;;;;29.10;13.40;;;;;;;-1.11;70.42;98809.14;219024;1276;24257;-69
2022/03/04 04:13:29;;;;;;;27.50;13.80;;;;;;;-1.10;70.70;98810.71;219077;1276;22743;-69
2022/03/04 04:18:31;;;;;;;22.10;12.10;;;;;;;-1.08;70.83;98813.85;219211;1276;22544;-68
2022/03/04 04:23:35;;;;;;;23.20;12.70;;;;;;;-1.07;70.86;98813.65;219053;1276;22898;-69
2022/03/04 04:28:37;;;;;;;20.20;11.70;;;;;;;-1.09;71.19;98812.23;218759;1276;22556;-69
2022/03/04 04:33:40;;;;;;;23.60;12.50;;;;;;;-1.06;71.30;98816.74;218987;1276;24318;-69
2022/03/04 04:38:42;;;;;;;24.40;12.50;;;;;;;-1.07;71.38;98818.37;219099;1276;24251;-69
2022/03/04 04:43:45;;;;;;;21.60;10.90;;;;;;;-1.08;71.50;98815.96;219071;1276;22746;-68
2022/03/04 04:48:47;;;;;;;21.10;11.90;;;;;;;-1.10;71.50;98817.46;219112;1276;22592;-69
2022/03/04 04:53:50;;;;;;;19.80;11.70;;;;;;;-1.12;71.81;98819.17;219071;1276;24073;-69
2022/03/04 04:58:53;;;;;;;20.50;11.90;;;;;;;-1.13;72.33;98820.68;218760;1276;24320;-68
2022/03/04 05:03:55;;;;;;;22.40;12.50;;;;;;;-1.15;72.53;98820.13;218898;1276;22573;-69
2022/03/04 05:09:01;;;;;;;25.90;13.40;;;;;;;-1.18;72.61;98825.42;218858;1276;22535;-68
2022/03/04 05:14:03;;;;;;;26.60;13.50;;;;;;;-1.20;72.82;98826.54;219058;1276;22547;-69
2022/03/04 05:19:05;;;;;;;21.40;11.40;;;;;;;-1.22;72.91;98823.75;218942;1277;22751;-69
2022/03/04 05:24:19;;;;;;;23.60;11.60;;;;;;;-1.23;73.16;98818.98;218817;1277;23947;-69
2022/03/04 05:29:22;;;;;;;22.00;11.40;;;;;;;-1.26;73.58;98819.73;218798;1276;22589;-69
2022/03/04 05:34:25;;;;;;;21.20;11.90;;;;;;;-1.28;73.57;98821.89;218795;1276;23815;-69
2022/03/04 05:39:31;;;;;;;27.00;13.10;;;;;;;-1.30;73.74;98826.27;218940;1276;22610;-68
2022/03/04 05:44:33;;;;;;;23.30;12.60;;;;;;;-1.29;73.89;98833.70;218903;1276;25507;-69
2022/03/04 05:49:36;;;;;;;25.40;12.20;;;;;;;-1.27;74.24;98842.30;219107;1276;22560;-70
2022/03/04 05:54:38;;;;;;;23.10;12.20;;;;;;;-1.25;74.50;98843.86;218924;1276;22704;-69
2022/03/04 05:59:50;;;;;;;25.60;12.10;;;;;;;-1.23;74.51;98846.73;219019;1276;26587;-69
2022/03/04 06:04:52;;;;;;;25.20;12.20;;;;;;;-1.21;74.41;98846.42;218837;1276;22611;-69
2022/03/04 06:09:55;;;;;;;25.30;13.00;;;;;;;-1.20;74.65;98852.98;218851;1276;22710;-69
2022/03/04 06:14:57;;;;;;;22.90;10.90;;;;;;;-1.16;74.95;98866.55;219025;1276;24264;-68
2022/03/04 06:19:59;;;;;;;26.80;13.70;;;;;;;-1.14;74.81;98868.30;218979;1276;24254;-69
2022/03/04 06:25:02;;;;;;;26.40;12.30;;;;;;;-1.13;74.99;98871.81;219207;1276;22703;-68
2022/03/04 06:30:05;;;;;;;22.60;11.50;;;;;;;-1.09;75.41;98880.08;219009;1276;22607;-69
2022/03/04 06:35:09;;;;;;;20.70;12.20;;;;;;;-1.02;75.17;98878.99;218508;1276;25420;-68
2022/03/04 06:40:12;;;;;;;25.00;12.80;;;;;;;-0.96;75.21;98882.12;218263;1276;22554;-68
2022/03/04 06:45:14;;;;;;;23.30;12.20;;;;;;;-0.91;75.38;98879.86;218504;1276;24736;-68
2022/03/04 06:50:16;;;;;;;26.90;13.50;;;;;;;-0.86;75.49;98884.04;218634;1276;22699;-68
2022/03/04 06:55:22;;;;;;;31.00;15.20;;;;;;;-0.79;75.41;98889.03;218555;1276;22546;-69
2022/03/04 07:00:25;;;;;;;25.80;14.40;;;;;;;-0.72;75.59;98888.14;218654;1276;26432;-69
2022/03/04 07:05:30;;;;;;;28.70;14.60;;;;;;;-0.64;75.37;98886.87;219129;1276;22547;-68
2022/03/04 07:10:37;;;;;;;28.00;14.80;;;;;;;-0.59;75.64;98893.80;218525;1276;22640;-68
2022/03/04 07:15:39;;;;;;;28.00;15.40;;;;;;;-0.53;75.62;98894.20;218374;1276;22557;-68
2022/03/04 07:20:42;;;;;;;29.30;15.80;;;;;;;-0.46;75.71;98896.70;218437;1276;24089;-69
2022/03/04 07:25:50;;;;;;;30.40;14.60;;;;;;;-0.39;75.48;98901.67;218667;1277;203207;-68
2022/03/04 07:30:52;;;;;;;28.80;14.30;;;;;;;-0.27;75.42;98909.25;218352;1276;22780;-69
2022/03/04 07:35:57;;;;;;;31.90;16.60;;;;;;;-0.21;75.42;98912.89;218161;1277;22643;-69
2022/03/04 07:41:10;;;;;;;33.40;16.10;;;;;;;-0.09;75.61;98918.52;218470;1276;25644;-68
2022/03/04 07:46:36;;;;;;;36.20;17.20;;;;;;;0.04;75.30;98920.04;218465;1276;22551;-69
2022/03/04 07:51:45;;;;;;;34.00;17.30;;;;;;;0.11;75.19;98917.95;218860;1276;25576;-68
2022/03/04 07:56:49;;;;;;;32.00;16.40;;;;;;;0.15;75.21;98921.67;218688;1276;22806;-68
2022/03/04 08:01:51;;;;;;;37.70;17.80;;;;;;;0.22;75.23;98924.61;218441;1276;25646;-68
2022/03/04 08:06:54;;;;;;;38.10;17.70;;;;;;;0.27;74.99;98926.19;218046;1276;23649;-68
2022/03/04 08:12:04;;;;;;;35.60;17.40;;;;;;;0.30;74.72;98924.45;218385;1276;26073;-69
2022/03/04 08:17:12;;;;;;;37.80;19.10;;;;;;;0.32;74.88;98924.96;218530;1276;22844;-68
2022/03/04 08:22:18;;;;;;;40.60;19.90;;;;;;;0.36;75.14;98927.13;218544;1276;28117;-68
2022/03/04 08:27:28;;;;;;;;;;;;;;;0.40;75.15;98932.35;218654;1276;25339;-68
2022/03/04 08:32:32;;;;;;;42.10;19.60;;;;;;;0.44;75.23;98936.45;218430;1276;26678;-68
2022/03/04 08:38:01;;;;;;;48.20;21.10;;;;;;;0.54;75.21;98931.97;218247;1276;23041;-68
2022/03/04 08:43:53;;;;;;;38.90;19.30;;;;;;;0.62;75.57;98933.27;218110;1278;24590;-68
2022/03/04 08:49:29;;;;;;;41.70;19.90;;;;;;;0.81;75.57;98931.96;218200;1277;23663;-68
2022/03/04 08:55:41;;;;;;;;;;;;;;;;;;;;;
2022/03/04 09:00:55;;;;;;;44.80;21.30;;;;;;;1.04;75.32;98934.73;218363;1276;26339;-67
2022/03/04 09:06:16;;;;;;;;;;;;;;;;;;;;;
2022/03/04 09:11:22;;;;;;;43.70;21.10;;;;;;;1.31;74.98;98946.41;218701;1276;22543;-67
2022/03/04 09:16:29;;;;;;;40.90;20.60;;;;;;;1.36;74.60;98957.85;218248;1276;22585;-67
2022/03/04 09:21:39;;;;;;;44.20;22.10;;;;;;;1.30;74.47;98962.96;218633;1276;24363;-69
2022/03/04 09:27:02;;;;;;;42.80;21.10;;;;;;;1.25;74.39;98967.89;218362;1276;22555;-69
2022/03/04 09:32:04;;;;;;;37.40;20.70;;;;;;;1.20;74.71;98971.92;218278;1276;24138;-70
2022/03/04 09:37:20;;;;;;;;;;;;;;;;;;;;;
2022/03/04 09:42:30;;;;;;;39.90;20.40;;;;;;;1.17;74.75;98969.17;218095;1276;22694;-69
2022/03/04 09:47:34;;;;;;;38.50;20.00;;;;;;;1.30;74.55;98966.50;219086;1276;22535;-70
2022/03/04 09:52:57;;;;;;;38.50;19.30;;;;;;;1.42;74.34;98970.73;220213;1276;23251;-69
2022/03/04 09:58:11;;;;;;;40.40;20.20;;;;;;;1.58;74.50;98968.85;218186;1276;25238;-70
2022/03/04 10:03:51;;;;;;;36.40;19.60;;;;;;;1.83;74.50;98967.39;220332;1276;22691;-69
2022/03/04 10:09:07;;;;;;;34.60;18.40;;;;;;;2.17;74.21;98963.45;217944;1276;22540;-68
2022/03/04 10:14:13;;;;;;;33.60;18.80;;;;;;;2.40;73.67;98964.73;218180;1276;25597;-70
2022/03/04 10:19:18;;;;;;;36.70;20.00;;;;;;;2.52;73.20;98960.17;218250;1276;25316;-69
2022/03/04 10:24:36;;;;;;;38.90;21.50;;;;;;;2.61;73.25;98961.95;219098;1276;22832;-67
2022/03/04 10:29:53;;;;;;;38.50;20.60;;;;;;;2.73;73.10;98963.00;218787;1276;22813;-69
2022/03/04 10:35:05;;;;;;;36.80;20.10;;;;;;;2.77;72.34;98965.26;218692;1276;27727;-67
2022/03/04 10:40:10;;;;;;;36.50;18.90;;;;;;;2.77;72.49;98968.23;218247;1276;22673;-67
2022/03/04 10:45:16;;;;;;;37.70;20.60;;;;;;;2.64;72.18;98969.23;218410;1276;22707;-67
2022/03/04 10:50:34;;;;;;;40.60;20.90;;;;;;;2.50;72.56;98971.40;218373;1276;22613;-66
2022/03/04 10:55:48;;;;;;;;;;;;;;;2.43;72.77;98970.39;218343;1276;22549;-67
2022/03/04 11:01:00;;;;;;;42.00;20.50;;;;;;;2.40;72.84;98968.95;218708;1276;22719;-67
2022/03/04 11:06:06;;;;;;;37.80;19.10;;;;;;;2.40;72.88;98973.44;218770;1276;22623;-67
2022/03/04 11:11:09;;;;;;;37.80;19.70;;;;;;;2.42;72.64;98969.84;218841;1276;22830;-68
2022/03/04 11:16:15;;;;;;;37.80;19.20;;;;;;;2.45;72.75;98964.93;218771;1276;22535;-67
2022/03/04 11:21:21;;;;;;;39.00;19.80;;;;;;;2.40;72.44;98966.73;218899;1276;22623;-67
2022/03/04 11:26:27;;;;;;;33.00;16.30;;;;;;;2.33;72.66;98967.33;218613;1276;22553;-67
2022/03/04 11:31:33;;;;;;;34.50;17.80;;;;;;;2.31;72.94;98969.06;218686;1276;22547;-67
2022/03/04 11:36:50;;;;;;;34.20;17.40;;;;;;;2.36;72.96;98970.63;218665;1276;25576;-67
2022/03/04 11:42:39;;;;;;;35.30;17.90;;;;;;;2.48;72.86;98964.64;218420;1276;25520;-67
2022/03/04 11:47:45;;;;;;;31.00;16.20;;;;;;;2.55;72.92;98966.95;218601;1276;25309;-67
2022/03/04 11:52:48;;;;;;;33.60;17.50;;;;;;;2.62;72.81;98965.30;218662;1276;25411;-67
2022/03/04 11:57:59;;;;;;;36.00;18.20;;;;;;;2.73;72.91;98960.61;218421;1276;25676;-68
2022/03/04 12:03:23;;;;;;;37.70;18.90;;;;;;;3.04;73.05;98963.23;218371;1276;23842;-67
2022/03/04 12:08:47;;;;;;;35.70;17.80;;;;;;;3.44;72.66;98955.52;218414;1276;22787;-67
2022/03/04 12:14:07;;;;;;;31.40;16.10;;;;;;;3.70;72.00;98958.20;218357;1276;22568;-69
2022/03/04 12:19:30;;;;;;;31.80;15.50;;;;;;;3.77;71.37;98958.64;218506;1276;22538;-68
2022/03/04 12:24:35;;;;;;;29.50;16.20;;;;;;;3.84;71.40;98957.43;218361;1278;24482;-68
2022/03/04 12:29:43;;;;;;;34.90;18.10;;;;;;;3.84;70.98;98954.98;218408;1277;22558;-68
2022/03/04 12:34:55;;;;;;;33.40;16.30;;;;;;;3.77;70.86;98955.20;218495;1276;24291;-68
2022/03/04 12:39:57;;;;;;;28.40;15.50;;;;;;;3.75;70.85;98947.79;218818;1276;22541;-68
2022/03/04 12:44:59;;;;;;;23.10;12.30;;;;;;;3.67;70.51;98956.50;218631;1276;22580;-68
2022/03/04 12:50:06;;;;;;;12.80;6.70;;;;;;;3.32;69.77;98965.73;218839;1276;22554;-67
2022/03/04 12:55:09;;;;;;;11.90;6.90;;;;;;;2.91;69.50;98966.98;218603;1276;22566;-68
2022/03/04 13:00:15;;;;;;;10.60;5.50;;;;;;;2.70;70.33;98961.35;218469;1276;22717;-68
2022/03/04 13:05:17;;;;;;;14.50;8.30;;;;;;;2.64;70.63;98959.02;218577;1276;22791;-67
2022/03/04 13:10:20;;;;;;;20.30;10.90;;;;;;;2.71;71.31;98956.04;218370;1276;25480;-68
2022/03/04 13:15:22;;;;;;;26.30;13.90;;;;;;;2.90;71.82;98954.52;219038;1276;25353;-68
2022/03/04 13:20:26;;;;;;;32.20;14.90;;;;;;;3.18;72.07;98950.52;218876;1276;22571;-67
2022/03/04 13:25:29;;;;;;;26.80;13.80;;;;;;;3.51;72.29;98945.95;218791;1276;22587;-68
2022/03/04 13:30:50;;;;;;;23.30;12.70;;;;;;;3.77;71.96;98954.23;218602;1276;23397;-67
2022/03/04 13:35:57;;;;;;;25.10;13.50;;;;;;;3.89;71.45;98956.23;218574;1276;25545;-69
2022/03/04 13:41:00;;;;;;;19.60;11.30;;;;;;;4.00;71.26;98955.04;218437;1276;25448;-68
2022/03/04 13:46:11;;;;;;;19.70;11.00;;;;;;;4.12;70.52;98957.98;218658;1276;22538;-68
2022/03/04 13:51:14;;;;;;;19.90;10.00;;;;;;;4.27;69.70;98952.85;218907;1276;22575;-68
2022/03/04 13:56:24;;;;;;;17.50;9.40;;;;;;;4.48;69.23;98952.94;218719;1277;25271;-68
2022/03/04 14:01:32;;;;;;;16.90;9.10;;;;;;;4.44;67.93;98956.92;218509;1279;25379;-68
2022/03/04 14:07:07;;;;;;;15.10;8.60;;;;;;;4.17;66.95;98953.51;218743;1276;25424;-68
2022/03/04 14:12:10;;;;;;;21.40;9.90;;;;;;;3.96;66.87;98950.94;218449;1274;24250;-68
2022/03/04 14:17:13;;;;;;;19.30;10.10;;;;;;;3.74;67.28;98951.86;218714;1276;25364;-68
2022/03/04 14:22:15;;;;;;;19.60;10.80;;;;;;;3.57;67.27;98957.77;218742;1276;22566;-68
2022/03/04 14:27:18;;;;;;;20.30;11.00;;;;;;;3.42;67.36;98956.06;218619;1276;22540;-67
2022/03/04 14:32:20;;;;;;;22.20;11.80;;;;;;;3.33;67.81;98961.88;218513;1276;22663;-67
2022/03/04 14:37:29;;;;;;;20.60;10.90;;;;;;;3.27;68.15;98966.36;218947;1277;22550;-67
2022/03/04 14:42:45;;;;;;;23.10;11.70;;;;;;;3.19;68.13;98970.51;218774;1276;22540;-68
2022/03/04 14:48:13;;;;;;;24.80;12.40;;;;;;;3.06;68.04;98972.48;218740;1276;24320;-68
2022/03/04 14:53:15;;;;;;;25.80;11.50;;;;;;;2.93;67.96;98978.30;218704;1276;22542;-68
2022/03/04 14:58:18;;;;;;;25.80;13.10;;;;;;;2.77;68.04;98978.68;218377;1277;25406;-68
2022/03/04 15:03:23;;;;;;;27.70;13.20;;;;;;;2.64;68.33;98982.02;218740;1276;22711;-69
2022/03/04 15:08:32;;;;;;;26.30;12.70;;;;;;;2.51;68.78;98980.69;219097;1276;25844;-70
2022/03/04 15:13:51;;;;;;;28.80;13.80;;;;;;;2.48;69.20;98979.48;218978;1276;24202;-69
2022/03/04 15:18:56;;;;;;;26.50;13.00;;;;;;;2.47;69.49;98988.58;218756;1277;24326;-70
2022/03/04 15:23:59;;;;;;;29.80;13.30;;;;;;;2.45;69.41;98984.55;219700;1277;24288;-70
2022/03/04 15:29:08;;;;;;;25.60;13.70;;;;;;;2.42;69.57;98985.61;218798;1278;24384;-70
2022/03/04 15:34:13;;;;;;;23.20;13.40;;;;;;;2.39;69.56;98991.23;218927;1277;24444;-69
2022/03/04 15:39:17;;;;;;;28.20;14.30;;;;;;;2.33;69.42;98991.05;218871;1276;22567;-69
2022/03/04 15:44:25;;;;;;;24.70;13.20;;;;;;;2.28;69.63;98992.63;219620;1277;22595;-70
2022/03/04 15:49:28;;;;;;;23.10;12.90;;;;;;;2.27;69.73;99001.92;218913;1277;22866;-69
2022/03/04 15:54:31;;;;;;;24.60;12.90;;;;;;;2.24;69.92;99004.53;219063;1276;25454;-70
2022/03/04 15:59:49;;;;;;;26.90;13.80;;;;;;;2.18;70.04;99004.67;218846;1276;22560;-68
2022/03/04 16:05:12;;;;;;;25.30;13.80;;;;;;;2.11;70.23;99008.52;219770;1277;22677;-70
2022/03/04 16:10:14;;;;;;;25.00;13.70;;;;;;;2.05;70.45;99006.77;218783;1277;22573;-69
2022/03/04 16:15:17;;;;;;;27.10;14.20;;;;;;;2.01;70.51;99008.58;218831;1278;24225;-69
2022/03/04 16:20:19;;;;;;;28.00;14.90;;;;;;;1.98;70.77;99012.89;218658;1277;22701;-68
2022/03/04 16:25:25;;;;;;;26.80;14.00;;;;;;;1.94;71.00;99019.40;218745;1277;24414;-68
2022/03/04 16:30:28;;;;;;;28.80;14.70;;;;;;;1.90;71.17;99019.23;218795;1277;22717;-70
2022/03/04 16:35:37;;;;;;;24.40;13.60;;;;;;;1.84;71.41;99016.68;218957;1277;22536;-69
2022/03/04 16:40:42;;;;;;;27.50;13.80;;;;;;;1.85;71.51;99024.05;218733;1277;22618;-69
2022/03/04 16:45:46;;;;;;;28.10;14.10;;;;;;;1.85;71.73;99024.86;218840;1277;24249;-70
2022/03/04 16:50:50;;;;;;;21.10;12.40;;;;;;;1.82;71.71;99027.02;218920;1277;22582;-70
2022/03/04 16:55:52;;;;;;;24.70;14.00;;;;;;;1.78;71.89;99028.13;218897;1277;22538;-69
2022/03/04 17:00:54;;;;;;;21.30;13.50;;;;;;;1.75;71.99;99031.55;218785;1278;24227;-69
2022/03/04 17:05:57;;;;;;;21.30;12.40;;;;;;;1.72;72.19;99031.51;218882;1277;24301;-70
2022/03/04 17:11:02;;;;;;;20.70;12.60;;;;;;;1.69;72.32;99033.50;218805;1277;24258;-69
2022/03/04 17:16:14;;;;;;;;;;;;;;;;;;;;;
2022/03/04 17:21:28;;;;;;;20.30;12.30;;;;;;;1.66;72.66;99037.48;218644;1277;24336;-69
2022/03/04 17:26:30;;;;;;;20.40;11.90;;;;;;;1.64;72.86;99038.64;218840;1277;22697;-70
2022/03/04 17:31:34;;;;;;;23.60;12.00;;;;;;;1.63;72.93;99040.23;219105;1277;22714;-70
2022/03/04 17:36:38;;;;;;;21.40;11.40;;;;;;;1.62;73.03;99038.59;218985;1277;22634;-70
2022/03/04 17:41:43;;;;;;;19.40;11.30;;;;;;;1.61;73.23;99043.75;218907;1277;25312;-69
2022/03/04 17:46:49;;;;;;;27.30;14.20;;;;;;;1.60;73.38;99045.19;218844;1277;22730;-70
2022/03/04 17:52:00;;;;;;;22.40;12.40;;;;;;;1.59;73.63;99045.21;218837;1277;22702;-69
2022/03/04 17:57:06;;;;;;;22.00;12.10;;;;;;;1.58;73.80;99048.36;218941;1276;25301;-69
2022/03/04 18:02:29;;;;;;;22.10;11.90;;;;;;;1.50;73.92;99048.61;218881;1277;22563;-70
2022/03/04 18:07:31;;;;;;;22.60;12.80;;;;;;;1.39;74.40;99055.77;219236;1277;22598;-69
2022/03/04 18:12:34;;;;;;;25.30;13.60;;;;;;;1.30;74.91;99058.98;218992;1276;22604;-69
2022/03/04 18:17:36;;;;;;;24.10;14.20;;;;;;;1.21;75.16;99060.79;218987;1276;22582;-70
2022/03/04 18:22:39;;;;;;;25.90;15.10;;;;;;;1.14;75.49;99067.16;218922;1277;22606;-69
2022/03/04 18:27:49;;;;;;;28.40;15.30;;;;;;;1.10;75.79;99068.30;219235;1277;22730;-69
2022/03/04 18:32:52;;;;;;;27.40;14.80;;;;;;;1.06;75.94;99067.69;219938;1277;22663;-68
2022/03/04 18:40:09;;;;;;;24.10;13.40;;;;;;;1.04;76.31;99072.55;219144;1276;22725;-69
2022/03/04 18:43:17;;;;;;;25.40;14.00;;;;;;;1.00;76.03;99066.36;219171;1276;22554;-69
2022/03/04 18:48:32;;;;;;;21.70;12.70;;;;;;;0.98;76.41;99070.61;218951;1277;22558;-68
2022/03/04 18:53:37;;;;;;;22.50;13.00;;;;;;;0.95;76.78;99072.23;218887;1277;22572;-69
2022/03/04 18:58:41;;;;;;;21.30;13.30;;;;;;;0.92;76.84;99075.02;219131;1276;22578;-70
2022/03/04 19:03:46;;;;;;;22.90;13.40;;;;;;;0.87;76.91;99076.52;218970;1276;22532;-68
2022/03/04 19:08:58;;;;;;;24.20;13.70;;;;;;;0.83;77.11;99075.66;218990;1276;24298;-70
2022/03/04 19:14:00;;;;;;;23.40;13.20;;;;;;;0.79;77.18;99073.54;219053;1276;22540;-69
2022/03/04 19:19:06;;;;;;;25.80;15.00;;;;;;;0.76;77.19;99073.41;218776;1277;22718;-70
2022/03/04 19:24:08;;;;;;;25.70;14.40;;;;;;;0.74;77.47;99070.75;218424;1276;382625;-66
2022/03/04 19:29:16;;;;;;;23.20;14.10;;;;;;;0.72;77.63;99073.24;218827;1277;22739;-71
2022/03/04 19:34:19;;;;;;;25.50;14.70;;;;;;;0.68;77.66;99074.41;218842;1277;22568;-70
2022/03/04 19:39:23;;;;;;;27.60;15.90;;;;;;;0.67;77.77;99074.17;218772;1277;25430;-69
2022/03/04 19:44:42;;;;;;;28.70;16.00;;;;;;;0.66;77.94;99076.98;218757;1277;22601;-68
2022/03/04 19:50:00;;;;;;;28.90;15.80;;;;;;;0.64;77.88;99080.38;218808;1276;22565;-69
2022/03/04 19:55:04;;;;;;;33.20;17.10;;;;;;;0.61;77.84;99077.91;218816;1276;25383;-70
2022/03/04 20:00:08;;;;;;;42.20;22.10;;;;;;;0.57;78.02;99077.81;218815;1277;22597;-70
2022/03/04 20:05:13;;;;;;;40.30;19.40;;;;;;;0.57;78.20;99080.14;218729;1276;24903;-68
2022/03/04 20:10:16;;;;;;;40.40;18.80;;;;;;;0.57;78.13;99077.55;218822;1276;23809;-70
2022/03/04 20:15:19;;;;;;;30.20;16.50;;;;;;;0.55;78.22;99072.16;218773;1277;24343;-70
2022/03/04 20:20:37;;;;;;;32.50;17.40;;;;;;;0.54;78.31;99073.80;218622;1277;24439;-69
2022/03/04 20:25:59;;;;;;;27.40;15.90;;;;;;;0.51;78.31;99066.30;218633;1276;22551;-69
2022/03/04 20:31:01;;;;;;;30.90;17.10;;;;;;;0.49;78.31;99074.37;218729;1276;22541;-69
2022/03/04 20:36:06;;;;;;;32.20;17.10;;;;;;;0.48;78.21;99075.06;218695;1276;22627;-70
2022/03/04 20:41:08;;;;;;;31.60;16.90;;;;;;;0.46;78.28;99074.80;218653;1277;22557;-70
2022/03/04 20:46:11;;;;;;;31.70;16.80;;;;;;;0.45;78.43;99077.01;218501;1276;25368;-69
2022/03/04 20:51:16;;;;;;;28.10;17.00;;;;;;;0.44;78.55;99074.29;218897;1276;22542;-69
2022/03/04 20:56:18;;;;;;;29.00;16.20;;;;;;;0.44;78.47;99078.30;218710;1276;22821;-69
2022/03/04 21:01:27;;;;;;;31.40;15.80;;;;;;;0.43;78.58;99082.95;218520;1277;22587;-70
2022/03/04 21:06:31;;;;;;;29.20;15.70;;;;;;;0.42;78.32;99082.61;218468;1276;22588;-70
2022/03/04 21:11:33;;;;;;;28.60;15.90;;;;;;;0.42;78.34;99085.98;218664;1276;25260;-69
2022/03/04 21:16:38;;;;;;;35.10;17.30;;;;;;;0.41;78.57;99091.34;218510;1277;24621;-69
2022/03/04 21:21:41;;;;;;;29.40;15.70;;;;;;;0.43;78.48;99093.30;218556;1276;25395;-70
2022/03/04 21:26:43;;;;;;;31.20;17.00;;;;;;;0.47;78.59;99091.89;218605;1277;24196;-68
2022/03/04 21:31:46;;;;;;;32.10;15.70;;;;;;;0.50;78.56;99092.92;218545;1276;25299;-69
2022/03/04 21:36:48;;;;;;;33.90;16.80;;;;;;;0.49;78.45;99097.20;218569;1277;25375;-68
2022/03/04 21:41:50;;;;;;;29.80;14.90;;;;;;;0.49;78.61;99097.20;219541;1276;25466;-70
2022/03/04 21:46:53;;;;;;;26.10;15.30;;;;;;;0.50;78.44;99094.52;218605;1276;23921;-68
2022/03/04 21:51:59;;;;;;;35.30;17.70;;;;;;;0.51;78.52;99087.70;218535;1277;22706;-69
2022/03/04 21:57:02;;;;;;;36.90;17.90;;;;;;;0.49;78.51;99084.54;218696;1276;22541;-69
2022/03/04 22:02:04;;;;;;;32.30;16.90;;;;;;;0.47;78.46;99081.39;218704;1276;22561;-69
2022/03/04 22:07:20;;;;;;;30.20;15.00;;;;;;;0.42;78.26;99072.23;219684;1276;22560;-68
2022/03/04 22:13:07;;;;;;;31.30;15.50;;;;;;;0.37;78.50;99071.53;218796;1276;24441;-70
2022/03/04 22:18:22;;;;;;;29.10;14.80;;;;;;;0.31;78.39;99069.19;219690;1276;22553;-69
2022/03/04 22:23:27;;;;;;;24.80;13.60;;;;;;;0.21;78.24;99066.01;218621;1277;24373;-70
2022/03/04 22:28:31;;;;;;;29.70;15.30;;;;;;;0.21;78.69;99068.41;218453;1276;24324;-70
2022/03/04 22:33:33;;;;;;;24.40;14.40;;;;;;;0.16;78.60;99067.55;218534;1276;22607;-69
2022/03/04 22:38:36;;;;;;;31.50;14.40;;;;;;;0.14;78.76;99069.05;218554;1276;22755;-70
2022/03/04 22:43:39;;;;;;;31.60;16.30;;;;;;;0.14;78.76;99072.10;218686;1276;22658;-69
2022/03/04 22:48:51;;;;;;;30.90;15.40;;;;;;;0.13;78.93;99075.30;218481;1276;22614;-69
2022/03/04 22:54:10;;;;;;;29.50;16.40;;;;;;;0.14;79.16;99086.12;218516;1276;22583;-70
2022/03/04 22:59:40;;;;;;;28.60;15.30;;;;;;;0.14;79.19;99083.98;218609;1277;26237;-69
2022/03/04 23:15:33;;;;;;;32.90;15.90;;;;;;;0.14;79.56;99078.17;218417;1276;24321;-69
2022/03/04 23:20:35;;;;;;;34.10;16.80;;;;;;;0.19;79.25;99074.01;218666;1275;24346;-69
2022/03/04 23:25:38;;;;;;;33.80;15.90;;;;;;;0.24;79.48;99072.95;218467;1276;24414;-68
2022/03/04 23:30:40;;;;;;;30.20;15.90;;;;;;;0.27;79.50;99074.70;218855;1275;24266;-69
2022/03/04 23:35:43;;;;;;;26.20;13.80;;;;;;;0.27;79.61;99069.70;218611;1276;25384;-69
2022/03/04 23:40:47;;;;;;;29.30;15.70;;;;;;;0.26;79.45;99069.30;218627;1276;25432;-69
2022/03/04 23:45:50;;;;;;;32.10;16.40;;;;;;;0.26;79.45;99067.97;218940;1276;24322;-70
2022/03/04 23:50:55;;;;;;;27.40;14.40;;;;;;;0.24;79.34;99071.54;218931;1276;22835;-69
2022/03/04 23:55:58;;;;;;;31.10;15.10;;;;;;;0.23;79.80;99071.19;218989;1276;24257;-69
